Welcome to the New NWS' Forecast!
Most changes are behind the scenes, but click here for differences you might notice.

Terminal Aerodrome Forecast (TAF)

Issued by National Weather Service (NWS)

                            
633 
FTUS42 KKEY 152326
TAFEYW
TAF
KEYW 152326Z 1600/1624 11011KT P6SM SCT025 BKN100=